Cookeville, TN

3:55 PM CST on December 28, 2014 (GMT -0600)
Forrest Cove Ln and Forrest Rd | Change Station
CLOSE
Current Station
Personal Weather Station
Location: Cookeville, TN
Elevation: 1079 ft
Nearby Weather Stations

Elev 1079 ft 36.20 °N, 85.52 °W | Updated 2 seconds ago

Rain
Rain
41.5 °F
Feels Like 42 °F
N
0.0
Wind Variable Wind from NW
Gusts 2.5 mph

Today
High -- | Low -- °F
--% Chance of Precip.
Yesterday
High -- | Low -- °F
Precip. -- in
6:52 AM 4:35 PM
First Quarter, 51% visible
Pressure 30.11 in
Visibility 9.0 miles
Clouds Overcast 500 ft
Windchill 42 °F
Dew Point 41 °F
Humidity 99%
Rainfall 0.60 in
Snow Depth Not available.
UV 0 out of 12
Pollen .10 out of 12
Air Quality Not available.
Flu Activity Not available.
METAR KSRB 282135Z AUTO 32003KT 9SM OVC005 06/06 A3011 RMK

More Conditions Fewer Conditions

Pressure 30.11 in
Visibility 9.0 miles
Clouds Overcast 500 ft
Windchill 42 °F
Dew Point 41 °F
Humidity 99%
Rainfall 0.60 in
Snow Depth Not available.
UV 0 out of 12
Pollen .10 out of 12
Air Quality Not available.
Flu Activity Not available.
METAR KSRB 282135Z AUTO 32003KT 9SM OVC005 06/06 A3011 RMK

More Conditions Fewer Conditions

10-Day Weather Forecast

Almanac

Astronomy

Dec. 28, 2014 Rise Set
Actual Time
Civil Twilight
Nautical Twilight
Astronomical Twilight
Moon
Length of Visible Light
Length of Day
Tomorrow will be .
, % of the Moon is Illuminated

Today's Extremes

State Highs State Lows

Community

WunderPhotos

Upload Photos

1,781,436 photos uploaded!

WunderBlogs® & News

Nearby

Air Quality

  Air Quality AQ Index Pollutant
Not available.

Snow Depth

Station Depth Elevation

Earthquake Activity

City Distance Mag. Time & Date
Minimum magnitude displayed is 2.5.

Coastal Water Temperatures

Place Temperature

Nearby Weather Stations